Delhi, Iowa
Current Conditions -  °F | °C
As of 10:35 AM on Wednesday 26 Nov 2014 (Local Time) from KMXO Reporting Station
Broken Clouds Broken Clouds  
Wind Chill: 18°   Ceiling: 6500
Heat Index: 27°   Visibility: 8mi
Dew Point: 25°   Wind: 8mph
Humidity: 93%   Direction: 90°E
Pressure: 30.06"   Gusts: NA
Location:  42.43°N, 91.33°W
Report Text: KMXO 261635Z AUTO 09007KT 8SM BKN065 BKN075 M03/M04 A3006 RMK AO2
Loading
Personal Weather Stations






























Interactive Weather Map New forecast layout! Learn more

10-Day Weather Forecast

Advertisements
Track Severe Weather on mobile